Huvudsida
METAR-TAF:

METAR-TAF

Flygplatser :

Mo i Rana flygplats. Røssvoll

Mo i Rana, Norge

latitud: 66-22N, longitud: 014-18E, höjd: 7 m

Aktuellt väderrapport

Denna rapport gjordes för 38 minuter sedan, klockan 18:20 UTC
Vind 2 kt varierande vindriktning
Temperatur 5°C
Fuktighet 93%
Tryck 1009 hPa
Sikt 10 km eller mer
Få moln på en höjd av 1800 ft
Spridda moln på en höjd av 2500 ft
Brutna moln på en höjd av 3500 ft
lätt regn

METAR: ENRA 201820Z VRB02KT 9999 -RA FEW018 SCT025 BKN035 05/04 Q1009

Tid: 20:58 (18:58 UTC)

Väderprognos

Denna rapport gjordes för 1 timme och 58 minuter sedan, klockan 17:00 UTC
Prognos gäller från 20 kl. 18 UTC till 20 kl. 22 UTC
Vind 5 kt varierande vindriktning
Sikt 10 km eller mer
Få moln på en höjd av 1500 ft
Brutna moln på en höjd av 2000 ft
lätt regn
Temporärt
från 20 kl. 18 UTC till 20 kl. 22 UTC
Brutna moln på en höjd av 1200 ft
regn

TAF: ENRA 201700Z 2018/2022 VRB05KT 9999 -RA FEW015 BKN020 TEMPO 2018/2022 RA BKN012

Aktuella väderrapporter och prognoser från 4000 flygplatser (METAR- och TAF-rapporter).

De tillgängliga stationerna syns som gula och röda prickar på kartan.

För musen över prickarna för att se namnen på stationerna.

Klicka sedan för att få väderrapporter och prognoser.

För att ändra kartan: Klicka på de gröna knapparna med ett svart kors på för att zooma in; den gröna knappen med ett streck på för att zooma ut; eller på de gröna pilarna för angränsande kartor.


METAR-TAF: